createdAt,value
2018-01-13T00:00:02.152Z,52.80
2018-01-13T00:02:30.712Z,51.03
2018-01-13T00:04:59.186Z,53.33
2018-01-13T00:07:27.797Z,52.70
2018-01-13T00:09:56.430Z,50.43
2018-01-13T00:12:25.084Z,50.07
2018-01-13T00:14:53.855Z,50.70
2018-01-13T00:17:22.684Z,49.50
2018-01-13T00:19:51.621Z,49.90
2018-01-13T00:22:20.281Z,50.47
2018-01-13T00:24:49.229Z,51.00
2018-01-13T00:27:18.061Z,49.80
2018-01-13T00:29:46.687Z,51.00
2018-01-13T00:32:15.476Z,51.33
2018-01-13T00:34:44.021Z,53.90
2018-01-13T00:37:12.591Z,52.07
2018-01-13T00:39:41.469Z,49.40
2018-01-13T00:42:10.228Z,48.73
2018-01-13T00:44:38.870Z,49.87
2018-01-13T00:47:07.418Z,48.50
2018-01-13T00:49:35.994Z,50.10
2018-01-13T00:52:04.885Z,49.70
2018-01-13T00:54:33.568Z,50.13
2018-01-13T00:57:02.230Z,47.20
2018-01-13T00:59:31.039Z,48.97
2018-01-13T01:01:59.633Z,49.37
2018-01-13T01:04:28.288Z,50.50
2018-01-13T01:06:57.037Z,51.87
2018-01-13T01:09:26.284Z,52.83
2018-01-13T01:11:55.228Z,51.90
2018-01-13T01:14:24.385Z,47.43
2018-01-13T01:16:53.212Z,49.27
2018-01-13T01:19:21.987Z,51.17
2018-01-13T01:21:50.531Z,46.47
2018-01-13T01:24:19.112Z,52.40
2018-01-13T01:26:53.948Z,51.10
2018-01-13T01:29:22.818Z,49.73
2018-01-13T01:31:51.378Z,48.53
2018-01-13T01:34:20.020Z,46.93
2018-01-13T01:36:48.816Z,49.47
2018-01-13T01:39:17.484Z,46.97
2018-01-13T01:41:46.251Z,49.80
2018-01-13T01:44:14.939Z,46.73
2018-01-13T01:46:43.501Z,48.60
2018-01-13T01:49:12.208Z,47.17
2018-01-13T01:51:40.834Z,45.77
2018-01-13T01:54:09.478Z,44.83
2018-01-13T01:56:39.597Z,46.17
2018-01-13T01:59:08.742Z,46.67
2018-01-13T02:01:37.645Z,46.60
2018-01-13T02:04:06.483Z,48.50
2018-01-13T02:06:37.351Z,46.20
2018-01-13T02:09:06.350Z,48.77
2018-01-13T02:11:34.964Z,44.43
2018-01-13T02:14:10.038Z,45.87
2018-01-13T02:16:38.952Z,41.77
2018-01-13T02:19:07.820Z,47.73
2018-01-13T02:21:36.518Z,46.97
2018-01-13T02:24:05.035Z,45.57
2018-01-13T02:26:33.718Z,44.90
2018-01-13T02:29:02.194Z,46.67
2018-01-13T02:31:31.054Z,46.20
2018-01-13T02:33:59.544Z,45.40
2018-01-13T02:36:28.042Z,43.70
2018-01-13T02:38:56.558Z,46.30
2018-01-13T02:41:25.110Z,46.40
2018-01-13T02:43:53.728Z,44.20
2018-01-13T02:46:22.731Z,47.10
2018-01-13T02:48:51.175Z,47.23
2018-01-13T02:51:19.832Z,47.53
2018-01-13T02:53:48.312Z,45.23
2018-01-13T02:56:16.895Z,46.77
2018-01-13T02:58:45.396Z,45.60
2018-01-13T03:01:14.077Z,46.80
2018-01-13T03:03:42.559Z,44.83
2018-01-13T03:06:14.138Z,47.23
2018-01-13T03:08:42.748Z,46.97
2018-01-13T03:11:11.259Z,49.03
2018-01-13T03:13:40.100Z,45.17
2018-01-13T03:16:09.135Z,45.40
2018-01-13T03:18:37.632Z,47.80
2018-01-13T03:21:06.182Z,48.50
2018-01-13T03:23:34.879Z,48.00
2018-01-13T03:26:03.407Z,48.80
2018-01-13T03:28:31.909Z,46.80
2018-01-13T03:31:00.440Z,48.10
2018-01-13T03:33:29.528Z,45.93
2018-01-13T03:35:58.452Z,46.10
2018-01-13T03:38:27.334Z,47.60
2018-01-13T03:40:56.224Z,47.70
2018-01-13T03:43:25.115Z,51.30
2018-01-13T03:45:54.219Z,48.00
2018-01-13T03:48:22.843Z,41.47
2018-01-13T03:50:51.343Z,50.00
2018-01-13T03:53:19.834Z,48.30
2018-01-13T03:55:48.423Z,49.57
2018-01-13T03:58:16.902Z,49.07
2018-01-13T04:00:45.392Z,51.73
2018-01-13T04:03:14.200Z,49.00
2018-01-13T04:05:42.863Z,52.30
2018-01-13T04:08:11.432Z,51.67
2018-01-13T04:10:40.230Z,45.33
2018-01-13T04:13:08.736Z,49.77
2018-01-13T04:15:37.255Z,47.80
2018-01-13T04:18:05.782Z,53.40
2018-01-13T04:20:34.794Z,50.90
2018-01-13T04:23:03.319Z,48.97
2018-01-13T04:25:31.821Z,50.03
2018-01-13T04:28:00.500Z,48.03
2018-01-13T04:30:29.044Z,50.23
2018-01-13T04:32:57.759Z,51.27
2018-01-13T04:35:26.306Z,47.67
2018-01-13T04:37:54.826Z,48.83
2018-01-13T04:40:23.439Z,48.70
2018-01-13T04:42:52.293Z,48.30
2018-01-13T04:45:20.953Z,47.30
2018-01-13T04:47:49.684Z,49.03
2018-01-13T04:50:18.533Z,48.17
2018-01-13T04:52:47.041Z,49.40
2018-01-13T04:55:15.682Z,48.10
2018-01-13T04:57:44.754Z,46.30
2018-01-13T05:03:19.829Z,45.27
2018-01-13T05:05:49.305Z,49.50
2018-01-13T05:08:18.097Z,48.17
2018-01-13T05:10:47.263Z,44.20
2018-01-13T05:13:16.181Z,47.80
2018-01-13T05:15:46.885Z,50.13
2018-01-13T05:18:15.923Z,50.13
2018-01-13T05:20:44.926Z,48.50
2018-01-13T05:23:13.790Z,48.70
2018-01-13T05:25:43.082Z,48.90
2018-01-13T05:28:12.210Z,49.10
2018-01-13T05:30:41.720Z,47.97
2018-01-13T05:33:10.819Z,47.67
2018-01-13T05:35:39.902Z,46.97
2018-01-13T05:38:08.802Z,47.43
2018-01-13T05:40:37.855Z,48.93
2018-01-13T05:43:06.794Z,45.83
2018-01-13T05:45:36.102Z,47.33
2018-01-13T05:48:05.179Z,46.47
2018-01-13T05:50:34.487Z,46.57
2018-01-13T05:53:03.948Z,47.20
2018-01-13T05:55:33.088Z,45.60
2018-01-13T05:58:01.889Z,44.80
2018-01-13T06:00:32.031Z,43.70
2018-01-13T06:03:01.035Z,44.30
2018-01-13T06:05:30.678Z,48.13
2018-01-13T06:07:59.329Z,45.53
2018-01-13T06:10:28.381Z,45.27
2018-01-13T06:12:57.209Z,39.70
2018-01-13T06:15:26.356Z,44.20
2018-01-13T06:17:55.828Z,45.60
2018-01-13T06:20:24.702Z,41.97
2018-01-13T06:22:54.058Z,42.90
2018-01-13T06:25:29.715Z,46.73
2018-01-13T06:27:58.795Z,42.77
2018-01-13T06:30:27.690Z,41.77
2018-01-13T06:32:56.755Z,43.00
2018-01-13T06:35:26.079Z,43.80
2018-01-13T06:37:55.157Z,45.10
2018-01-13T06:40:24.271Z,40.73
2018-01-13T06:42:53.334Z,41.30
2018-01-13T06:45:22.671Z,39.67
2018-01-13T06:47:51.766Z,43.57
2018-01-13T06:50:20.615Z,39.37
2018-01-13T06:52:49.742Z,40.90
2018-01-13T06:55:19.048Z,40.60
2018-01-13T06:57:47.870Z,38.63
2018-01-13T07:00:18.061Z,40.50
2018-01-13T07:02:47.310Z,39.83
2018-01-13T07:05:16.442Z,38.23
2018-01-13T07:07:45.465Z,35.03
2018-01-13T07:10:14.851Z,37.70
2018-01-13T07:12:43.661Z,36.80
2018-01-13T07:15:12.861Z,38.50
2018-01-13T07:17:41.787Z,37.63
2018-01-13T07:20:11.022Z,36.70
2018-01-13T07:22:40.527Z,36.40
2018-01-13T07:25:10.041Z,32.90
2018-01-13T07:27:39.944Z,35.40
2018-01-13T07:30:09.026Z,34.77
2018-01-13T07:32:37.933Z,34.40
2018-01-13T07:35:06.981Z,32.90
2018-01-13T07:37:36.305Z,32.70
2018-01-13T07:40:05.279Z,33.23
2018-01-13T07:42:35.182Z,31.53
2018-01-13T07:45:04.573Z,31.00
2018-01-13T07:47:33.421Z,29.40
2018-01-13T07:50:02.619Z,29.80
2018-01-13T07:52:32.018Z,28.70
2018-01-13T07:55:01.188Z,29.70
2018-01-13T07:57:30.388Z,28.23
2018-01-13T07:59:59.792Z,28.27
2018-01-13T08:02:32.698Z,27.37
2018-01-13T08:05:01.966Z,29.40
2018-01-13T08:07:37.178Z,28.30
2018-01-13T08:10:07.891Z,27.50
2018-01-13T08:12:37.098Z,27.13
2018-01-13T08:15:06.116Z,25.93
2018-01-13T08:17:36.813Z,26.60
2018-01-13T08:20:07.446Z,26.10
2018-01-13T08:22:38.206Z,26.50
2018-01-13T08:25:07.378Z,20.43
2018-01-13T08:27:37.150Z,25.60
2018-01-13T08:30:06.869Z,24.47
2018-01-13T08:32:36.361Z,23.53
2018-01-13T08:35:05.376Z,24.17
2018-01-13T08:37:35.859Z,25.70
2018-01-13T08:40:05.982Z,24.57
2018-01-13T08:42:35.574Z,23.00
2018-01-13T08:45:05.350Z,23.60
2018-01-13T08:47:35.699Z,20.40
2018-01-13T08:50:06.078Z,22.63
2018-01-13T08:52:35.273Z,23.17
2018-01-13T08:55:04.866Z,22.97
2018-01-13T08:57:33.900Z,21.70
2018-01-13T09:00:02.993Z,22.50
2018-01-13T09:02:32.222Z,21.50
2018-01-13T09:05:01.938Z,20.73
2018-01-13T09:07:31.739Z,21.77
2018-01-13T09:10:01.020Z,21.80
2018-01-13T09:12:29.802Z,19.63
2018-01-13T09:14:58.952Z,21.37
2018-01-13T09:17:28.138Z,21.63
2018-01-13T09:19:57.153Z,20.97
2018-01-13T09:22:27.567Z,19.93
2018-01-13T09:24:56.614Z,21.13
2018-01-13T09:27:26.734Z,21.27
2018-01-13T09:29:55.823Z,20.40
2018-01-13T09:32:25.091Z,19.70
2018-01-13T09:34:54.213Z,18.50
2018-01-13T09:37:23.315Z,20.27
2018-01-13T09:39:52.289Z,20.23
2018-01-13T09:42:21.051Z,19.67
2018-01-13T09:44:50.044Z,18.70
2018-01-13T09:47:18.995Z,19.33
2018-01-13T09:49:49.550Z,18.97
2018-01-13T09:52:18.616Z,16.57
2018-01-13T09:54:47.761Z,17.37
2018-01-13T09:57:16.902Z,17.43
2018-01-13T09:59:46.561Z,16.67
2018-01-13T10:02:15.923Z,17.17
2018-01-13T10:04:45.485Z,17.17
2018-01-13T10:07:14.493Z,16.63
2018-01-13T10:09:43.811Z,14.90
2018-01-13T10:12:12.917Z,15.37
2018-01-13T10:14:41.684Z,15.20
2018-01-13T10:17:10.583Z,14.53
2018-01-13T10:19:39.735Z,15.93
2018-01-13T10:22:08.639Z,16.10
2018-01-13T10:24:38.016Z,16.67
2018-01-13T10:27:06.870Z,16.07
2018-01-13T10:29:35.755Z,17.97
2018-01-13T10:32:04.728Z,16.37
2018-01-13T10:34:33.668Z,16.10
2018-01-13T10:37:03.026Z,16.33
2018-01-13T10:39:31.927Z,15.43
2018-01-13T10:42:01.414Z,14.33
2018-01-13T10:44:30.535Z,14.57
2018-01-13T10:47:00.234Z,14.20
2018-01-13T10:49:29.210Z,14.80
2018-01-13T10:51:58.495Z,14.60
2018-01-13T10:54:27.729Z,14.63
2018-01-13T10:56:56.631Z,14.80
2018-01-13T10:59:25.471Z,15.40
2018-01-13T11:01:55.833Z,15.90
2018-01-13T11:04:24.932Z,16.00
2018-01-13T11:06:55.255Z,15.73
2018-01-13T11:09:24.766Z,16.57
2018-01-13T11:11:54.468Z,16.43
2018-01-13T11:14:23.522Z,16.43
2018-01-13T11:16:52.881Z,16.00
2018-01-13T11:19:22.343Z,15.47
2018-01-13T11:21:51.410Z,14.03
2018-01-13T11:24:21.005Z,14.70
2018-01-13T11:26:50.143Z,16.00
2018-01-13T11:29:20.202Z,15.77
2018-01-13T11:31:49.679Z,14.57
2018-01-13T11:34:19.666Z,15.37
2018-01-13T11:36:48.626Z,15.63
2018-01-13T11:39:17.997Z,14.03
2018-01-13T11:41:47.170Z,16.43
2018-01-13T11:44:16.754Z,15.43
2018-01-13T11:46:46.691Z,15.40
2018-01-13T11:49:15.766Z,16.70
2018-01-13T11:51:44.887Z,15.80
2018-01-13T11:54:13.909Z,14.60
2018-01-13T11:56:43.305Z,15.30
2018-01-13T11:59:12.404Z,14.53
2018-01-13T12:01:45.937Z,15.17
2018-01-13T12:04:20.773Z,14.03
2018-01-13T12:06:50.460Z,13.90
2018-01-13T12:09:20.042Z,13.70
2018-01-13T12:11:49.497Z,16.17
2018-01-13T12:14:18.382Z,15.77
2018-01-13T12:16:48.044Z,15.30
2018-01-13T12:19:17.388Z,16.83
2018-01-13T12:21:46.739Z,14.60
2018-01-13T12:24:16.048Z,15.47
2018-01-13T12:26:45.976Z,16.83
2018-01-13T12:29:14.961Z,13.87
2018-01-13T12:31:44.762Z,15.40
2018-01-13T12:34:13.694Z,14.47
2018-01-13T12:36:42.926Z,16.17
2018-01-13T12:39:13.756Z,14.70
2018-01-13T12:41:45.366Z,13.20
2018-01-13T12:44:14.807Z,15.33
2018-01-13T12:46:43.873Z,14.17
2018-01-13T12:49:13.042Z,15.43
2018-01-13T12:51:43.163Z,14.57
2018-01-13T12:54:12.834Z,16.90
2018-01-13T12:56:42.140Z,13.27
2018-01-13T12:59:11.881Z,13.53
2018-01-13T13:01:43.921Z,13.07
2018-01-13T13:04:13.719Z,13.40
2018-01-13T13:06:43.066Z,13.23
2018-01-13T13:09:11.930Z,10.93
2018-01-13T13:11:41.073Z,13.70
2018-01-13T13:14:10.709Z,14.60
2018-01-13T13:16:40.155Z,15.07
2018-01-13T13:19:09.615Z,13.73
2018-01-13T13:21:38.813Z,13.53
2018-01-13T13:24:08.159Z,11.83
2018-01-13T13:26:37.089Z,12.60
2018-01-13T13:29:06.644Z,12.23
2018-01-13T13:31:35.706Z,13.83
2018-01-13T13:34:05.017Z,13.40
2018-01-13T13:36:34.558Z,13.87
2018-01-13T13:39:03.475Z,14.13
2018-01-13T13:41:33.980Z,13.87
2018-01-13T13:44:04.376Z,12.23
2018-01-13T13:46:33.809Z,10.57
2018-01-13T13:49:03.748Z,12.33
2018-01-13T13:51:33.090Z,12.07
2018-01-13T13:54:02.408Z,11.77
2018-01-13T13:56:32.078Z,12.40
2018-01-13T13:59:02.490Z,12.40
2018-01-13T14:01:39.534Z,10.47
2018-01-13T14:04:08.383Z,10.53
2018-01-13T14:06:37.719Z,8.87
2018-01-13T14:09:07.020Z,11.43
2018-01-13T14:11:37.556Z,10.00
2018-01-13T14:14:06.650Z,9.67
2018-01-13T14:16:38.150Z,10.53
2018-01-13T14:19:08.075Z,9.47
2018-01-13T14:21:37.399Z,9.23
2018-01-13T14:24:06.374Z,10.33
2018-01-13T14:26:35.802Z,9.30
2018-01-13T14:29:04.638Z,9.17
2018-01-13T14:31:33.795Z,9.20
2018-01-13T14:34:03.197Z,9.10
2018-01-13T14:36:32.285Z,9.70
2018-01-13T14:39:01.257Z,9.70
2018-01-13T14:42:03.359Z,9.67
2018-01-13T14:44:32.648Z,9.30
2018-01-13T14:47:02.044Z,9.50
2018-01-13T14:49:31.335Z,8.50
2018-01-13T14:52:00.533Z,7.53
2018-01-13T14:54:30.150Z,8.43
2018-01-13T14:56:59.371Z,9.20
2018-01-13T14:59:29.719Z,8.27
2018-01-13T15:02:05.548Z,7.27
2018-01-13T15:04:36.375Z,8.57
2018-01-13T15:07:05.624Z,7.90
2018-01-13T15:09:35.123Z,6.83
2018-01-13T15:12:04.584Z,7.07
2018-01-13T15:14:33.532Z,7.00
2018-01-13T15:17:02.761Z,7.83
2018-01-13T15:19:36.722Z,7.70
2018-01-13T15:22:07.330Z,7.50
2018-01-13T15:24:36.454Z,8.60
2018-01-13T15:27:06.633Z,7.77
2018-01-13T15:29:36.111Z,7.13
2018-01-13T15:32:06.807Z,6.97
2018-01-13T15:34:35.846Z,7.60
2018-01-13T15:37:04.911Z,7.57
2018-01-13T15:39:34.035Z,8.50
2018-01-13T15:42:03.767Z,8.70
2018-01-13T15:44:33.791Z,7.67
2018-01-13T15:47:04.171Z,8.77
2018-01-13T15:49:33.505Z,9.83
2018-01-13T15:52:03.216Z,8.20
2018-01-13T15:54:32.977Z,7.30
2018-01-13T15:57:01.757Z,8.13
2018-01-13T15:59:30.879Z,7.73
2018-01-13T16:02:02.158Z,8.17
2018-01-13T16:04:32.171Z,8.90
2018-01-13T16:07:01.382Z,9.50
2018-01-13T16:09:30.512Z,8.93
2018-01-13T16:12:00.658Z,8.93
2018-01-13T16:14:29.793Z,9.30
2018-01-13T16:16:59.384Z,9.80
2018-01-13T16:19:29.783Z,8.73
2018-01-13T16:21:59.326Z,9.70
2018-01-13T16:24:29.057Z,9.83
2018-01-13T16:26:58.479Z,8.90
2018-01-13T16:29:27.610Z,8.80
2018-01-13T16:31:57.376Z,9.33
2018-01-13T16:34:27.550Z,10.30
2018-01-13T16:36:58.132Z,10.33
2018-01-13T16:39:27.087Z,9.43
2018-01-13T16:41:56.148Z,10.27
2018-01-13T16:44:26.905Z,10.50
2018-01-13T16:46:56.124Z,10.03
2018-01-13T16:49:25.922Z,9.47
2018-01-13T16:51:56.731Z,10.80
2018-01-13T16:54:27.666Z,10.40
2018-01-13T16:56:57.299Z,10.10
2018-01-13T16:59:27.039Z,10.70
2018-01-13T17:01:59.273Z,10.93
2018-01-13T17:04:33.352Z,11.13
2018-01-13T17:07:02.898Z,11.30
2018-01-13T17:09:32.192Z,12.07
2018-01-13T17:12:02.119Z,12.10
2018-01-13T17:14:31.013Z,12.23
2018-01-13T17:17:00.299Z,12.27
2018-01-13T17:19:29.975Z,10.57
2018-01-13T17:21:59.496Z,13.33
2018-01-13T17:24:28.702Z,12.37
2018-01-13T17:26:58.326Z,11.10
2018-01-13T17:29:28.414Z,11.80
2018-01-13T17:31:58.162Z,12.43
2018-01-13T17:34:30.449Z,12.17
2018-01-13T17:37:00.811Z,12.37
2018-01-13T17:39:30.282Z,11.30
2018-01-13T17:42:00.407Z,12.07
2018-01-13T17:44:32.315Z,12.37
2018-01-13T17:47:02.387Z,11.80
2018-01-13T17:49:31.736Z,13.40
2018-01-13T17:52:01.226Z,11.23
2018-01-13T17:54:31.166Z,12.70
2018-01-13T17:57:01.136Z,12.17
2018-01-13T17:59:29.996Z,10.90
2018-01-13T18:02:02.590Z,10.70
2018-01-13T18:04:32.251Z,10.47
2018-01-13T18:07:01.739Z,10.23
2018-01-13T18:09:30.745Z,10.10
2018-01-13T18:12:00.451Z,9.80
2018-01-13T18:14:31.550Z,12.10
2018-01-13T18:17:03.610Z,10.87
2018-01-13T18:19:33.069Z,11.60
2018-01-13T18:22:03.149Z,11.03
2018-01-13T18:24:32.839Z,10.37
2018-01-13T18:27:02.624Z,10.40
2018-01-13T18:29:32.158Z,9.80
2018-01-13T18:32:01.481Z,11.43
2018-01-13T18:34:30.445Z,10.07
2018-01-13T18:37:00.892Z,11.03
2018-01-13T18:39:30.561Z,11.00
2018-01-13T18:42:00.230Z,10.10
2018-01-13T18:44:30.363Z,10.50
2018-01-13T18:47:00.842Z,10.30
2018-01-13T18:49:30.694Z,11.37
2018-01-13T18:52:01.821Z,9.93
2018-01-13T18:54:32.150Z,10.33
2018-01-13T18:57:02.563Z,11.60
2018-01-13T18:59:32.066Z,11.00
2018-01-13T19:02:06.207Z,10.03
2018-01-13T19:04:38.840Z,10.60
2018-01-13T19:07:09.201Z,9.90
2018-01-13T19:09:39.343Z,8.17
2018-01-13T19:12:10.510Z,10.10
2018-01-13T19:14:43.995Z,10.20
2018-01-13T19:17:14.632Z,10.50
2018-01-13T19:19:44.904Z,10.13
2018-01-13T19:22:13.914Z,8.87
2018-01-13T19:24:44.255Z,9.87
2018-01-13T19:27:15.261Z,9.33
2018-01-13T19:29:45.201Z,9.13
2018-01-13T19:32:15.144Z,9.70
2018-01-13T19:34:45.655Z,10.13
2018-01-13T19:37:16.054Z,10.10
2018-01-13T19:39:47.464Z,10.80
2018-01-13T19:42:18.568Z,9.90
2018-01-13T19:44:51.082Z,10.10
2018-01-13T19:47:21.905Z,9.90
2018-01-13T19:49:53.106Z,9.30
2018-01-13T19:52:24.216Z,11.00
2018-01-13T19:54:54.740Z,11.70
2018-01-13T19:57:26.537Z,11.50
2018-01-13T19:59:58.227Z,10.77
2018-01-13T20:02:30.829Z,11.10
2018-01-13T20:05:05.011Z,11.90
2018-01-13T20:07:35.534Z,11.27
2018-01-13T20:10:07.459Z,12.07
2018-01-13T20:12:41.148Z,10.70
2018-01-13T20:15:14.828Z,11.37
2018-01-13T20:17:48.218Z,11.03
2018-01-13T20:20:21.681Z,11.60
2018-01-13T20:22:52.598Z,11.70
2018-01-13T20:25:23.836Z,10.77
2018-01-13T20:27:54.596Z,11.50
2018-01-13T20:30:25.342Z,11.00
2018-01-13T20:32:56.739Z,11.63
2018-01-13T20:35:28.367Z,12.47
2018-01-13T20:38:00.557Z,11.27
2018-01-13T20:40:32.771Z,10.50
2018-01-13T20:43:04.087Z,11.10
2018-01-13T20:45:39.299Z,11.67
2018-01-13T20:55:00.397Z,10.90
2018-01-13T20:57:30.713Z,12.00
2018-01-13T21:00:00.092Z,11.13
2018-01-13T21:02:35.036Z,11.77
2018-01-13T21:05:06.065Z,11.33
2018-01-13T21:07:38.720Z,12.67
2018-01-13T21:10:09.549Z,12.00
2018-01-13T21:12:43.013Z,12.63
2018-01-13T21:15:13.406Z,12.50
2018-01-13T21:17:43.982Z,12.17
2018-01-13T21:20:14.793Z,12.93
2018-01-13T21:22:45.375Z,12.20
2018-01-13T21:25:16.887Z,12.47
2018-01-13T21:27:46.830Z,12.43
2018-01-13T21:30:16.880Z,11.70
2018-01-13T21:32:50.836Z,12.57
2018-01-13T21:35:26.789Z,14.07
2018-01-13T21:38:01.172Z,12.57
2018-01-13T21:40:39.124Z,13.73
2018-01-13T21:43:11.135Z,12.57
2018-01-13T21:45:46.713Z,12.60
2018-01-13T21:48:21.578Z,12.43
2018-01-13T21:50:55.118Z,13.73
2018-01-13T21:53:30.093Z,12.70
2018-01-13T21:56:01.547Z,12.83
2018-01-13T21:58:32.729Z,12.40
2018-01-13T22:01:06.723Z,13.77
2018-01-13T22:03:39.609Z,13.10
2018-01-13T22:06:12.721Z,12.40
2018-01-13T22:08:42.931Z,13.93
2018-01-13T22:11:12.124Z,12.80
2018-01-13T22:13:42.872Z,12.90
2018-01-13T22:16:15.219Z,12.13
2018-01-13T22:18:45.672Z,12.40
2018-01-13T22:21:15.131Z,12.60
2018-01-13T22:23:46.872Z,12.40
2018-01-13T22:26:18.617Z,12.17
2018-01-13T22:28:50.035Z,13.30
2018-01-13T22:31:23.031Z,12.57
2018-01-13T22:36:47.793Z,12.50
2018-01-13T22:39:24.588Z,13.83
2018-01-13T22:41:54.961Z,13.90
2018-01-13T22:44:24.154Z,13.10
2018-01-13T22:46:55.888Z,13.00
2018-01-13T22:49:25.719Z,14.00
2018-01-13T22:51:55.327Z,14.43
2018-01-13T22:54:25.813Z,14.13
2018-01-13T22:56:58.425Z,12.77
2018-01-13T22:59:35.399Z,13.80
2018-01-13T23:02:08.018Z,13.47
2018-01-13T23:04:41.519Z,13.80
2018-01-13T23:07:14.429Z,13.77
2018-01-13T23:09:46.267Z,13.67
2018-01-13T23:12:17.627Z,14.47
2018-01-13T23:14:46.954Z,12.50
2018-01-13T23:17:16.531Z,13.73
2018-01-13T23:19:47.301Z,13.67
2018-01-13T23:22:16.224Z,14.50
2018-01-13T23:24:47.403Z,13.53
2018-01-13T23:27:22.766Z,12.27
2018-01-13T23:29:54.800Z,15.03
2018-01-13T23:32:25.994Z,12.77
2018-01-13T23:34:55.602Z,14.80
2018-01-13T23:37:25.205Z,13.67
2018-01-13T23:39:54.194Z,13.83
2018-01-13T23:42:23.537Z,14.70
2018-01-13T23:44:53.084Z,13.90
2018-01-13T23:47:21.937Z,15.33
2018-01-13T23:49:53.019Z,14.90
2018-01-13T23:52:25.308Z,14.50
2018-01-13T23:54:55.307Z,14.57
2018-01-13T23:57:24.371Z,15.43
2018-01-13T23:59:53.496Z,16.07
